SAN weather

San Diego International Airport
San Diego, California, United States

Public forecast

Using degrees Fahrenheit for public forecast. Weather courtesy of forecast.io.

METAR (pilot weather report)

Retrieved 2018/02/24 10:51 UTC (1 hour ago):

KSAN 241051Z 00000KT 10SM CLR 08/M01 A3032 RMK AO2 SLP265 T00831006 $

TAF (pilot weather forecast)

Retrieved 2018/02/24 06:22 UTC (6 hours ago):

TAF KSAN 240520Z 2406/2512 VRB04KT P6SM FEW045 FM242100 29009KT P6SM SKC FM250200 VRB05KT P6SM FEW035